createdAt,value
2017-10-09T00:01:55.683Z,91.13
2017-10-09T00:04:24.241Z,91.21
2017-10-09T00:06:52.669Z,91.27
2017-10-09T00:09:21.912Z,91.37
2017-10-09T00:11:50.336Z,91.36
2017-10-09T00:14:18.788Z,91.18
2017-10-09T00:16:47.312Z,91.41
2017-10-09T00:19:16.524Z,91.49
2017-10-09T00:21:45.725Z,91.52
2017-10-09T00:24:14.937Z,91.52
2017-10-09T00:26:44.134Z,91.56
2017-10-09T00:29:13.349Z,91.50
2017-10-09T00:31:42.690Z,91.43
2017-10-09T00:34:11.146Z,91.35
2017-10-09T00:36:39.581Z,91.64
2017-10-09T00:39:08.821Z,91.32
2017-10-09T00:41:37.261Z,91.44
2017-10-09T00:44:06.514Z,91.42
2017-10-09T00:46:34.965Z,91.58
2017-10-09T00:49:03.397Z,91.50
2017-10-09T00:51:31.954Z,91.58
2017-10-09T00:54:00.379Z,91.49
2017-10-09T00:56:28.912Z,91.49
2017-10-09T00:58:57.393Z,91.34
2017-10-09T01:01:25.837Z,91.68
2017-10-09T01:03:55.076Z,91.59
2017-10-09T01:06:23.530Z,91.15
2017-10-09T01:08:52.721Z,91.50
2017-10-09T01:11:21.937Z,91.61
2017-10-09T01:13:50.370Z,91.66
2017-10-09T01:16:18.829Z,91.80
2017-10-09T01:18:47.262Z,91.94
2017-10-09T01:21:16.476Z,91.87
2017-10-09T01:23:45.696Z,91.80
2017-10-09T01:26:14.185Z,91.57
2017-10-09T01:28:42.645Z,92.06
2017-10-09T01:31:11.077Z,92.11
2017-10-09T01:33:39.524Z,92.11
2017-10-09T01:36:07.952Z,92.10
2017-10-09T01:38:36.489Z,92.29
2017-10-09T01:41:04.968Z,92.17
2017-10-09T01:43:33.417Z,92.14
2017-10-09T01:46:02.617Z,92.19
2017-10-09T01:48:31.837Z,92.18
2017-10-09T01:51:00.265Z,92.08
2017-10-09T01:53:28.723Z,91.87
2017-10-09T01:55:57.162Z,92.01
2017-10-09T01:58:26.384Z,92.29
2017-10-09T02:00:54.809Z,92.48
2017-10-09T02:03:23.262Z,92.38
2017-10-09T02:05:51.693Z,92.57
2017-10-09T02:08:20.909Z,92.61
2017-10-09T02:10:50.105Z,92.49
2017-10-09T02:13:19.332Z,92.75
2017-10-09T02:15:47.758Z,93.14
2017-10-09T02:18:16.212Z,92.70
2017-10-09T02:20:44.641Z,92.95
2017-10-09T02:23:13.843Z,92.76
2017-10-09T02:25:43.076Z,92.65
2017-10-09T02:28:11.561Z,92.95
2017-10-09T02:30:40.026Z,92.85
2017-10-09T02:33:08.457Z,92.93
2017-10-09T02:35:36.911Z,93.22
2017-10-09T02:38:05.384Z,93.59
2017-10-09T02:40:33.832Z,93.46
2017-10-09T02:43:03.073Z,93.62
2017-10-09T02:45:31.549Z,93.80
2017-10-09T02:48:00.034Z,94.00
2017-10-09T02:50:28.484Z,93.91
2017-10-09T02:52:57.713Z,94.08
2017-10-09T02:55:26.201Z,93.79
2017-10-09T02:57:54.677Z,93.84
2017-10-09T03:00:23.244Z,93.90
2017-10-09T03:02:51.744Z,93.66
2017-10-09T03:05:20.224Z,93.84
2017-10-09T03:07:48.714Z,94.11
2017-10-09T03:10:17.140Z,94.07
2017-10-09T03:12:45.672Z,94.05
2017-10-09T03:15:14.098Z,93.94
2017-10-09T03:17:42.644Z,93.98
2017-10-09T03:20:11.077Z,94.23
2017-10-09T03:26:05.877Z,94.56
2017-10-09T03:28:36.232Z,94.23
2017-10-09T03:31:05.429Z,94.14
2017-10-09T03:33:34.663Z,94.13
2017-10-09T03:36:03.089Z,94.32
2017-10-09T03:38:31.534Z,94.26
2017-10-09T03:41:00.013Z,94.36
2017-10-09T03:43:28.476Z,94.19
2017-10-09T03:45:56.904Z,94.38
2017-10-09T03:48:25.356Z,94.43
2017-10-09T03:50:53.784Z,94.67
2017-10-09T03:53:22.241Z,94.43
2017-10-09T03:55:50.669Z,94.80
2017-10-09T03:58:19.884Z,94.59
2017-10-09T04:00:48.312Z,94.58
2017-10-09T04:03:16.766Z,94.83
2017-10-09T04:05:45.192Z,94.87
2017-10-09T04:08:13.662Z,94.79
2017-10-09T04:10:42.108Z,95.00
2017-10-09T04:13:10.600Z,95.11
2017-10-09T04:15:39.026Z,94.97
2017-10-09T04:18:07.462Z,95.31
2017-10-09T04:20:35.918Z,95.35
2017-10-09T04:23:04.349Z,95.40
2017-10-09T04:25:32.897Z,95.47
2017-10-09T04:28:01.377Z,95.38
2017-10-09T04:30:29.818Z,95.62
2017-10-09T04:32:59.014Z,95.98
2017-10-09T04:35:28.229Z,95.94
2017-10-09T04:37:57.456Z,96.81
2017-10-09T04:40:25.928Z,95.94
2017-10-09T04:42:54.356Z,96.09
2017-10-09T04:45:22.802Z,96.09
2017-10-09T04:47:51.229Z,96.26
2017-10-09T04:50:19.764Z,96.30
2017-10-09T04:52:48.188Z,96.26
2017-10-09T04:55:16.639Z,96.48
2017-10-09T04:57:45.091Z,96.39
2017-10-09T05:00:13.592Z,96.48
2017-10-09T05:02:42.021Z,96.35
2017-10-09T05:05:10.558Z,96.42
2017-10-09T05:07:38.985Z,96.38
2017-10-09T05:10:07.412Z,96.42
2017-10-09T05:12:35.868Z,96.39
2017-10-09T05:15:05.054Z,96.36
2017-10-09T05:17:34.284Z,96.36
2017-10-09T05:20:02.724Z,96.35
2017-10-09T05:22:31.364Z,96.54
2017-10-09T05:24:59.848Z,96.53
2017-10-09T05:27:28.328Z,96.48
2017-10-09T05:29:56.753Z,96.53
2017-10-09T05:32:25.205Z,96.47
2017-10-09T05:34:53.636Z,96.40
2017-10-09T05:37:22.876Z,96.35
2017-10-09T05:39:51.357Z,96.26
2017-10-09T05:42:19.805Z,96.26
2017-10-09T05:44:49.000Z,96.07
2017-10-09T05:47:18.220Z,95.99
2017-10-09T05:49:46.649Z,95.91
2017-10-09T05:52:15.196Z,95.70
2017-10-09T05:54:43.622Z,95.50
2017-10-09T05:57:12.174Z,95.22
2017-10-09T05:59:40.638Z,94.97
2017-10-09T06:02:09.088Z,94.73
2017-10-09T06:04:38.333Z,94.63
2017-10-09T06:07:06.756Z,94.44
2017-10-09T06:09:35.203Z,94.19
2017-10-09T06:12:03.677Z,94.17
2017-10-09T06:14:32.120Z,94.27
2017-10-09T06:17:01.358Z,94.00
2017-10-09T06:19:29.806Z,93.84
2017-10-09T06:21:58.992Z,93.81
2017-10-09T06:24:28.236Z,93.62
2017-10-09T06:26:56.716Z,93.29
2017-10-09T06:29:25.161Z,93.04
2017-10-09T06:31:53.681Z,92.79
2017-10-09T06:34:22.177Z,92.83
2017-10-09T06:36:50.607Z,92.44
2017-10-09T06:39:19.824Z,92.27
2017-10-09T06:41:49.046Z,91.94
2017-10-09T06:44:17.494Z,91.80
2017-10-09T06:46:46.724Z,91.56
2017-10-09T06:49:15.171Z,91.33
2017-10-09T06:51:44.409Z,91.20
2017-10-09T06:54:12.833Z,91.20
2017-10-09T06:56:41.285Z,90.90
2017-10-09T06:59:09.713Z,90.88
2017-10-09T07:01:38.952Z,90.89
2017-10-09T07:04:07.376Z,90.18
2017-10-09T07:06:35.828Z,89.70
2017-10-09T07:09:04.253Z,89.26
2017-10-09T07:11:32.701Z,88.98
2017-10-09T07:14:01.128Z,88.41
2017-10-09T07:16:30.341Z,88.08
2017-10-09T07:18:58.837Z,87.14
2017-10-09T07:21:27.288Z,86.87
2017-10-09T07:23:57.002Z,86.21
2017-10-09T07:26:26.509Z,85.79
2017-10-09T07:28:55.736Z,85.44
2017-10-09T07:31:24.231Z,85.07
2017-10-09T07:33:52.701Z,84.88
2017-10-09T07:36:21.183Z,84.44
2017-10-09T07:38:49.671Z,84.84
2017-10-09T07:41:18.161Z,84.60
2017-10-09T07:43:46.641Z,84.32
2017-10-09T07:46:15.068Z,84.26
2017-10-09T07:48:43.520Z,83.96
2017-10-09T07:51:11.945Z,83.96
2017-10-09T07:53:41.160Z,84.00
2017-10-09T07:56:09.588Z,83.54
2017-10-09T07:58:38.137Z,83.74
2017-10-09T08:01:06.568Z,83.52
2017-10-09T08:03:35.021Z,83.18
2017-10-09T08:06:03.449Z,82.95
2017-10-09T08:08:32.664Z,83.40
2017-10-09T08:11:01.093Z,82.51
2017-10-09T08:13:29.542Z,82.20
2017-10-09T08:15:58.030Z,82.62
2017-10-09T08:18:26.465Z,82.15
2017-10-09T08:20:55.811Z,81.92
2017-10-09T08:23:24.240Z,81.97
2017-10-09T08:25:52.696Z,82.58
2017-10-09T08:28:21.125Z,81.72
2017-10-09T08:30:50.352Z,81.55
2017-10-09T08:33:18.832Z,81.54
2017-10-09T08:35:47.289Z,81.70
2017-10-09T08:38:16.484Z,80.82
2017-10-09T08:40:45.704Z,80.87
2017-10-09T08:43:14.201Z,80.99
2017-10-09T08:45:42.669Z,80.39
2017-10-09T08:48:11.106Z,80.78
2017-10-09T08:50:39.565Z,79.85
2017-10-09T08:53:07.997Z,80.07
2017-10-09T08:55:37.225Z,79.95
2017-10-09T08:58:05.673Z,79.39
2017-10-09T09:00:34.873Z,79.54
2017-10-09T09:03:04.200Z,79.04
2017-10-09T09:05:32.637Z,78.91
2017-10-09T09:08:01.894Z,78.85
2017-10-09T09:10:30.332Z,78.55
2017-10-09T09:12:59.568Z,78.39
2017-10-09T09:15:28.044Z,78.29
2017-10-09T09:17:56.528Z,78.63
2017-10-09T09:20:24.962Z,77.87
2017-10-09T09:22:53.433Z,77.98
2017-10-09T09:25:21.976Z,77.78
2017-10-09T09:27:50.459Z,76.91
2017-10-09T09:30:18.940Z,77.11
2017-10-09T09:32:47.392Z,76.99
2017-10-09T09:35:16.584Z,77.11
2017-10-09T09:37:45.805Z,76.68
2017-10-09T09:40:14.306Z,76.07
2017-10-09T09:42:42.772Z,76.39
2017-10-09T09:45:11.268Z,76.26
2017-10-09T09:47:39.696Z,75.64
2017-10-09T09:50:08.921Z,75.49
2017-10-09T09:52:38.144Z,75.69
2017-10-09T09:55:06.633Z,75.16
2017-10-09T09:57:35.077Z,75.13
2017-10-09T10:00:04.301Z,74.87
2017-10-09T10:02:32.732Z,73.62
2017-10-09T10:05:01.220Z,72.59
2017-10-09T10:07:29.760Z,72.77
2017-10-09T10:09:58.229Z,72.32
2017-10-09T10:12:26.661Z,72.31
2017-10-09T10:14:55.173Z,72.78
2017-10-09T10:17:24.411Z,73.53
2017-10-09T10:19:52.869Z,74.45
2017-10-09T10:22:21.301Z,74.65
2017-10-09T10:24:49.844Z,74.35
2017-10-09T10:27:18.277Z,73.96
2017-10-09T10:29:46.736Z,72.97
2017-10-09T10:32:15.168Z,73.16
2017-10-09T10:34:44.488Z,72.12
2017-10-09T10:37:12.921Z,71.93
2017-10-09T10:39:41.377Z,72.45
2017-10-09T10:42:09.805Z,72.88
2017-10-09T10:44:39.005Z,72.14
2017-10-09T10:47:08.336Z,72.08
2017-10-09T10:49:36.768Z,71.89
2017-10-09T10:52:05.305Z,71.58
2017-10-09T10:54:33.742Z,71.82
2017-10-09T10:57:02.968Z,70.41
2017-10-09T10:59:31.475Z,70.40
2017-10-09T11:01:59.937Z,69.20
2017-10-09T11:04:28.368Z,69.53
2017-10-09T11:06:56.825Z,69.64
2017-10-09T11:09:25.261Z,70.52
2017-10-09T11:11:54.648Z,70.50
2017-10-09T11:14:23.172Z,70.56
2017-10-09T11:16:51.624Z,69.34
2017-10-09T11:19:20.820Z,69.76
2017-10-09T11:21:50.044Z,69.51
2017-10-09T11:24:18.479Z,69.26
2017-10-09T11:26:47.021Z,69.27
2017-10-09T11:29:15.506Z,70.39
2017-10-09T11:31:43.961Z,69.65
2017-10-09T11:34:13.186Z,68.40
2017-10-09T11:36:41.664Z,68.85
2017-10-09T11:39:10.116Z,68.89
2017-10-09T11:41:39.316Z,68.23
2017-10-09T11:44:08.649Z,68.75
2017-10-09T11:46:37.128Z,67.75
2017-10-09T11:49:05.622Z,68.26
2017-10-09T11:51:34.052Z,68.28
2017-10-09T11:54:03.276Z,66.61
2017-10-09T11:56:31.708Z,66.04
2017-10-09T11:59:00.169Z,65.70
2017-10-09T12:01:28.596Z,65.15
2017-10-09T12:03:57.801Z,65.07
2017-10-09T12:06:27.028Z,64.34
2017-10-09T12:08:55.456Z,64.36
2017-10-09T12:11:23.905Z,63.79
2017-10-09T12:13:52.358Z,63.13
2017-10-09T12:16:20.859Z,63.96
2017-10-09T12:18:49.346Z,63.47
2017-10-09T12:21:17.809Z,62.05
2017-10-09T12:23:46.236Z,61.42
2017-10-09T12:26:14.695Z,60.80
2017-10-09T12:28:43.174Z,62.59
2017-10-09T12:31:11.633Z,62.82
2017-10-09T12:33:40.068Z,63.38
2017-10-09T12:36:08.521Z,63.63
2017-10-09T12:38:36.953Z,64.58
2017-10-09T12:41:06.197Z,64.75
2017-10-09T12:43:34.630Z,65.02
2017-10-09T12:46:03.861Z,65.07
2017-10-09T12:48:32.294Z,63.79
2017-10-09T12:51:01.489Z,64.89
2017-10-09T12:53:30.033Z,64.56
2017-10-09T12:55:58.473Z,64.74
2017-10-09T12:58:26.928Z,64.52
2017-10-09T13:00:55.362Z,64.32
2017-10-09T13:03:23.828Z,64.36
2017-10-09T13:05:53.030Z,63.19
2017-10-09T13:08:22.367Z,63.93
2017-10-09T13:10:50.812Z,62.35
2017-10-09T13:13:20.043Z,62.04
2017-10-09T13:15:48.473Z,63.28
2017-10-09T13:18:16.991Z,64.09
2017-10-09T13:20:45.494Z,64.35
2017-10-09T13:23:13.961Z,62.98
2017-10-09T13:25:42.392Z,64.32
2017-10-09T13:28:10.820Z,64.70
2017-10-09T13:30:39.319Z,63.97
2017-10-09T13:33:07.764Z,64.53
2017-10-09T13:35:36.985Z,64.83
2017-10-09T13:38:05.413Z,64.26
2017-10-09T13:40:33.867Z,64.04
2017-10-09T13:43:02.311Z,63.61
2017-10-09T13:45:31.645Z,64.46
2017-10-09T13:48:00.097Z,63.59
2017-10-09T13:50:29.326Z,63.94
2017-10-09T13:52:57.815Z,63.84
2017-10-09T13:55:26.277Z,63.98
2017-10-09T13:57:54.713Z,61.45
2017-10-09T14:00:23.169Z,61.57
2017-10-09T14:02:51.608Z,62.08
2017-10-09T14:05:20.932Z,63.75
2017-10-09T14:07:49.357Z,64.64
2017-10-09T14:10:17.785Z,65.76
2017-10-09T14:12:46.236Z,66.93
2017-10-09T14:15:15.436Z,67.34
2017-10-09T14:17:44.664Z,67.74
2017-10-09T14:20:13.096Z,66.59
2017-10-09T14:22:41.553Z,66.12
2017-10-09T14:25:09.981Z,65.70
2017-10-09T14:27:39.204Z,63.96
2017-10-09T14:30:07.637Z,63.23
2017-10-09T14:40:02.109Z,62.50
2017-10-09T14:42:31.333Z,63.07
2017-10-09T14:44:59.821Z,63.37
2017-10-09T14:47:28.311Z,64.84
2017-10-09T14:49:56.749Z,65.41
2017-10-09T14:52:25.953Z,65.37
2017-10-09T14:54:55.177Z,65.85
2017-10-09T14:57:23.613Z,65.95
2017-10-09T14:59:52.077Z,65.16
2017-10-09T15:02:20.512Z,66.07
2017-10-09T15:04:48.974Z,66.81
2017-10-09T15:07:18.216Z,67.29
2017-10-09T15:09:46.673Z,67.45
2017-10-09T15:12:15.174Z,66.24
2017-10-09T15:14:43.636Z,67.35
2017-10-09T15:17:12.077Z,67.14
2017-10-09T15:19:40.543Z,66.54
2017-10-09T15:22:08.981Z,66.86
2017-10-09T15:24:37.477Z,67.48
2017-10-09T15:27:05.964Z,65.35
2017-10-09T15:29:34.408Z,66.22
2017-10-09T15:32:03.638Z,65.46
2017-10-09T15:34:32.077Z,66.12
2017-10-09T15:37:00.605Z,66.68
2017-10-09T15:39:29.090Z,67.29
2017-10-09T15:41:57.553Z,68.64
2017-10-09T15:44:25.985Z,69.53
2017-10-09T15:46:54.440Z,70.85
2017-10-09T15:49:22.913Z,71.52
2017-10-09T15:51:51.508Z,72.47
2017-10-09T15:54:19.982Z,72.89
2017-10-09T15:56:48.465Z,73.28
2017-10-09T15:59:16.912Z,74.00
2017-10-09T16:01:46.140Z,73.68
2017-10-09T16:04:14.581Z,74.46
2017-10-09T16:06:43.790Z,74.65
2017-10-09T16:09:13.019Z,75.16
2017-10-09T16:11:41.473Z,75.83
2017-10-09T16:14:10.698Z,75.79
2017-10-09T16:16:39.141Z,76.31
2017-10-09T16:19:07.605Z,76.07
2017-10-09T16:21:36.041Z,76.67
2017-10-09T16:24:04.505Z,76.80
2017-10-09T16:26:33.731Z,76.36
2017-10-09T16:29:02.215Z,77.04
2017-10-09T16:31:30.649Z,77.20
2017-10-09T16:33:59.993Z,79.63
2017-10-09T16:36:28.432Z,79.16
2017-10-09T16:38:56.890Z,78.61
2017-10-09T16:41:25.323Z,78.49
2017-10-09T16:43:53.781Z,78.98
2017-10-09T16:46:23.013Z,79.41
2017-10-09T16:48:51.503Z,79.72
2017-10-09T16:51:19.964Z,80.11
2017-10-09T16:53:48.397Z,80.32
2017-10-09T16:56:16.956Z,80.77
2017-10-09T16:58:45.428Z,81.17
2017-10-09T17:01:13.913Z,81.24
2017-10-09T17:03:42.349Z,81.46
2017-10-09T17:06:11.573Z,81.63
2017-10-09T17:08:40.074Z,81.84
2017-10-09T17:11:08.560Z,81.99
2017-10-09T17:13:37.002Z,82.83
2017-10-09T17:16:06.221Z,83.15
2017-10-09T17:18:34.717Z,83.14
2017-10-09T17:21:03.209Z,83.44
2017-10-09T17:23:31.681Z,83.55
2017-10-09T17:26:00.161Z,83.85
2017-10-09T17:28:28.597Z,84.27
2017-10-09T17:30:57.205Z,84.57
2017-10-09T17:33:26.405Z,84.88
2017-10-09T17:35:55.621Z,84.83
2017-10-09T17:38:24.045Z,85.23
2017-10-09T17:40:52.590Z,85.49
2017-10-09T17:43:21.026Z,85.85
2017-10-09T17:45:49.462Z,86.09
2017-10-09T17:48:17.940Z,86.33
2017-10-09T17:50:46.533Z,86.67
2017-10-09T17:53:14.985Z,86.81
2017-10-09T17:55:43.413Z,87.11
2017-10-09T17:58:11.970Z,87.11
2017-10-09T18:00:40.458Z,87.39
2017-10-09T18:03:08.913Z,87.54
2017-10-09T18:05:37.350Z,87.82
2017-10-09T18:08:07.310Z,88.08
2017-10-09T18:10:35.814Z,88.15
2017-10-09T18:13:04.290Z,88.15
2017-10-09T18:15:32.721Z,88.28
2017-10-09T18:18:01.257Z,88.71
2017-10-09T18:20:29.688Z,88.89
2017-10-09T18:22:58.121Z,88.80
2017-10-09T18:25:26.585Z,88.90
2017-10-09T18:27:55.016Z,89.04
2017-10-09T18:30:23.537Z,89.42
2017-10-09T18:32:52.729Z,89.14
2017-10-09T18:35:22.580Z,89.37
2017-10-09T18:37:51.004Z,89.34
2017-10-09T18:40:19.717Z,89.88
2017-10-09T18:42:48.957Z,89.66
2017-10-09T18:45:17.409Z,89.71
2017-10-09T18:47:45.839Z,89.65
2017-10-09T18:50:14.296Z,90.28
2017-10-09T18:52:42.780Z,90.18
2017-10-09T18:55:11.238Z,90.36
2017-10-09T18:57:39.675Z,90.65
2017-10-09T19:00:08.141Z,91.10
2017-10-09T19:02:36.574Z,91.39
2017-10-09T19:05:05.789Z,91.22
2017-10-09T19:07:34.221Z,91.32
2017-10-09T19:10:02.680Z,91.45
2017-10-09T19:12:31.110Z,91.69
2017-10-09T19:15:00.333Z,91.59
2017-10-09T19:17:28.761Z,91.58
2017-10-09T19:19:57.217Z,91.70
2017-10-09T19:22:25.649Z,91.45
2017-10-09T19:24:54.846Z,92.11
2017-10-09T19:27:24.061Z,92.10
2017-10-09T19:29:52.493Z,91.68
2017-10-09T19:32:20.947Z,92.36
2017-10-09T19:34:49.436Z,92.63
2017-10-09T19:37:18.001Z,92.33
2017-10-09T19:39:46.429Z,93.09
2017-10-09T19:42:15.642Z,92.61
2017-10-09T19:44:44.081Z,92.42
2017-10-09T19:47:12.890Z,92.89
2017-10-09T19:49:41.320Z,92.44
2017-10-09T19:52:09.817Z,92.52
2017-10-09T19:54:38.416Z,92.62
2017-10-09T19:57:06.870Z,92.92
2017-10-09T19:59:35.301Z,93.34
2017-10-09T20:02:03.856Z,93.55
2017-10-09T20:04:32.297Z,93.56
2017-10-09T20:07:01.502Z,93.34
2017-10-09T20:09:30.725Z,93.63
2017-10-09T20:11:59.160Z,93.15
2017-10-09T20:14:28.385Z,93.52
2017-10-09T20:16:57.589Z,94.06
2017-10-09T20:19:26.814Z,93.47
2017-10-09T20:21:55.261Z,93.79
2017-10-09T20:24:24.593Z,93.32
2017-10-09T20:26:53.024Z,94.08
2017-10-09T20:29:22.246Z,92.82
2017-10-09T20:31:51.479Z,93.08
2017-10-09T20:34:20.790Z,93.97
2017-10-09T20:36:49.237Z,93.17
2017-10-09T20:39:17.736Z,93.21
2017-10-09T20:41:46.165Z,93.09
2017-10-09T20:44:15.417Z,93.08
2017-10-09T20:46:43.905Z,93.69
2017-10-09T20:49:12.351Z,93.75
2017-10-09T20:51:41.582Z,93.99
2017-10-09T20:54:10.017Z,94.06
2017-10-09T20:56:38.469Z,94.10
2017-10-09T20:59:06.939Z,94.53
2017-10-09T21:01:35.398Z,94.71
2017-10-09T21:04:03.824Z,95.15
2017-10-09T21:06:32.281Z,94.80
2017-10-09T21:09:00.714Z,95.21
2017-10-09T21:11:29.933Z,94.74
2017-10-09T21:13:58.366Z,93.93
2017-10-09T21:16:26.913Z,94.50
2017-10-09T21:18:55.402Z,94.51
2017-10-09T21:21:23.884Z,94.53
2017-10-09T21:23:52.372Z,94.13
2017-10-09T21:26:20.824Z,94.43
2017-10-09T21:28:50.016Z,94.43
2017-10-09T21:31:19.204Z,94.90
2017-10-09T21:33:48.421Z,95.04
2017-10-09T21:36:16.921Z,94.81
2017-10-09T21:38:45.405Z,94.64
2017-10-09T21:41:13.826Z,94.74
2017-10-09T21:43:42.365Z,96.15
2017-10-09T21:46:10.848Z,96.92
2017-10-09T21:48:39.297Z,97.28
2017-10-09T21:51:08.488Z,97.83
2017-10-09T21:53:37.118Z,97.91
2017-10-09T21:56:05.554Z,98.73
2017-10-09T21:58:34.077Z,98.43
2017-10-09T22:01:02.561Z,98.05
2017-10-09T22:03:31.004Z,98.30
2017-10-09T22:06:00.246Z,98.19
2017-10-09T22:08:28.673Z,97.87
2017-10-09T22:10:57.897Z,98.19
2017-10-09T22:13:27.093Z,98.65
2017-10-09T22:15:56.429Z,98.32
2017-10-09T22:18:24.874Z,98.50
2017-10-09T22:20:54.104Z,98.69
2017-10-09T22:23:22.529Z,98.70
2017-10-09T22:25:51.757Z,98.93
2017-10-09T22:28:20.993Z,98.82
2017-10-09T22:30:49.453Z,98.53
2017-10-09T22:33:17.949Z,98.50
2017-10-09T22:35:46.406Z,98.63
2017-10-09T22:38:15.605Z,98.55
2017-10-09T22:40:44.826Z,98.77
2017-10-09T22:43:13.261Z,98.66
2017-10-09T22:45:42.472Z,98.62
2017-10-09T22:48:11.672Z,98.68
2017-10-09T22:50:40.897Z,98.73
2017-10-09T22:53:09.324Z,98.71
2017-10-09T22:55:37.756Z,98.75
2017-10-09T22:58:06.209Z,98.81
2017-10-09T23:00:34.737Z,98.97
2017-10-09T23:03:03.205Z,99.25
2017-10-09T23:05:31.712Z,99.10
2017-10-09T23:08:00.169Z,99.66
2017-10-09T23:10:28.600Z,99.65
2017-10-09T23:12:57.057Z,99.55
2017-10-09T23:15:25.530Z,99.73
2017-10-09T23:17:53.993Z,99.47
2017-10-09T23:20:22.421Z,99.55
2017-10-09T23:22:50.881Z,99.57
2017-10-09T23:25:19.357Z,99.48
2017-10-09T23:27:47.821Z,99.42
2017-10-09T23:30:16.253Z,99.36
2017-10-09T23:32:44.713Z,99.26
2017-10-09T23:35:13.148Z,99.33
2017-10-09T23:37:42.384Z,99.25
2017-10-09T23:40:10.849Z,98.99
2017-10-09T23:42:39.342Z,98.83
2017-10-09T23:45:07.791Z,99.01
2017-10-09T23:47:36.999Z,98.92
2017-10-09T23:50:05.460Z,98.92
2017-10-09T23:52:33.991Z,98.66
2017-10-09T23:55:02.457Z,98.95
2017-10-09T23:57:30.893Z,98.98
